createdAt,value
2023-03-26T00:01:40.627Z,0.90
2023-03-26T00:04:10.612Z,1.17
2023-03-26T00:06:39.966Z,1.73
2023-03-26T00:09:25.552Z,2.15
2023-03-26T00:11:52.189Z,0.75
2023-03-26T00:14:18.802Z,1.77
2023-03-26T00:16:55.144Z,2.28
2023-03-26T00:19:23.261Z,1.17
2023-03-26T00:21:53.194Z,1.13
2023-03-26T00:24:19.788Z,1.08
2023-03-26T00:26:53.352Z,0.82
2023-03-26T00:29:20.371Z,1.88
2023-03-26T00:31:47.013Z,1.67
2023-03-26T00:34:18.870Z,1.02
2023-03-26T00:36:47.072Z,0.82
2023-03-26T00:39:19.098Z,1.92
2023-03-26T00:41:45.732Z,1.38
2023-03-26T00:44:12.350Z,0.90
2023-03-26T00:46:39.880Z,0.98
2023-03-26T00:49:11.011Z,0.60
2023-03-26T00:51:42.527Z,0.77
2023-03-26T00:54:11.890Z,0.98
2023-03-26T00:56:43.413Z,1.90
2023-03-26T00:59:10.258Z,0.90
2023-03-26T01:01:37.829Z,1.80
2023-03-26T01:04:42.777Z,1.20
2023-03-26T01:07:21.754Z,2.28
2023-03-26T01:09:54.769Z,1.52
2023-03-26T01:12:26.787Z,0.75
2023-03-26T01:15:00.930Z,1.20
2023-03-26T01:17:34.178Z,2.10
2023-03-26T01:20:13.060Z,0.98
2023-03-26T01:22:49.486Z,0.88
2023-03-26T01:25:18.940Z,1.42
2023-03-26T01:27:48.962Z,2.65
2023-03-26T01:30:49.649Z,0.95
2023-03-26T01:33:30.355Z,0.73
2023-03-26T01:36:16.490Z,0.93
2023-03-26T01:38:48.838Z,0.57
2023-03-26T01:41:32.382Z,0.77
2023-03-26T01:44:37.265Z,1.08
2023-03-26T01:47:06.325Z,0.38
2023-03-26T01:49:35.625Z,0.20
2023-03-26T01:54:34.775Z,1.77
2023-03-26T01:57:13.397Z,1.88
2023-03-26T01:59:51.944Z,1.08
2023-03-26T02:02:43.529Z,1.50
2023-03-26T02:05:32.054Z,0.63
2023-03-26T02:08:27.014Z,1.27
2023-03-26T02:11:04.459Z,1.10
2023-03-26T02:13:32.383Z,1.13
2023-03-26T02:16:03.671Z,2.22
2023-03-26T02:18:41.630Z,1.40
2023-03-26T02:21:11.036Z,2.13
2023-03-26T02:23:58.120Z,0.50
2023-03-26T02:26:25.256Z,1.67
2023-03-26T02:28:51.950Z,1.00
2023-03-26T02:31:21.918Z,0.70
2023-03-26T02:33:50.645Z,1.23
2023-03-26T02:36:22.107Z,0.80
2023-03-26T02:38:51.669Z,1.77
2023-03-26T02:41:21.348Z,0.52
2023-03-26T02:43:48.022Z,0.52
2023-03-26T02:46:17.270Z,0.60
2023-03-26T02:51:10.870Z,1.38
2023-03-26T02:53:41.337Z,0.80
2023-03-26T02:56:10.033Z,1.95
2023-03-26T02:58:36.612Z,0.20
2023-03-26T03:01:03.757Z,1.88
2023-03-26T03:03:30.640Z,0.95
2023-03-26T03:06:04.395Z,2.95
2023-03-26T03:08:31.094Z,1.55
2023-03-26T03:11:03.668Z,2.13
2023-03-26T03:13:32.522Z,0.80
2023-03-26T03:16:01.397Z,2.22
2023-03-26T03:18:30.402Z,1.52
2023-03-26T03:20:56.985Z,1.33
2023-03-26T03:23:25.914Z,1.90
2023-03-26T03:25:57.395Z,4.38
2023-03-26T03:28:27.920Z,1.65
2023-03-26T03:30:57.680Z,1.90
2023-03-26T03:33:24.590Z,1.70
2023-03-26T03:35:51.465Z,1.63
2023-03-26T03:38:19.232Z,1.33
2023-03-26T03:40:51.202Z,1.80
2023-03-26T03:43:20.310Z,1.90
2023-03-26T03:45:47.460Z,1.48
2023-03-26T03:48:14.123Z,3.20
2023-03-26T03:50:40.706Z,1.52
2023-03-26T03:53:07.281Z,2.78
2023-03-26T03:55:33.829Z,2.13
2023-03-26T03:58:00.682Z,2.63
2023-03-26T04:00:27.593Z,3.97
2023-03-26T04:02:54.683Z,1.75
2023-03-26T04:05:23.589Z,1.30
2023-03-26T04:07:50.304Z,1.60
2023-03-26T04:10:19.861Z,1.92
2023-03-26T04:12:46.551Z,1.98
2023-03-26T04:15:15.591Z,1.38
2023-03-26T04:17:45.426Z,0.88
2023-03-26T04:20:15.888Z,1.95
2023-03-26T04:22:45.884Z,1.70
2023-03-26T04:25:15.553Z,0.70
2023-03-26T04:27:43.402Z,1.95
2023-03-26T04:30:17.244Z,2.78
2023-03-26T04:32:46.747Z,1.00
2023-03-26T04:35:17.033Z,1.40
2023-03-26T04:37:46.005Z,0.77
2023-03-26T04:40:19.592Z,1.13
2023-03-26T04:42:48.809Z,0.90
2023-03-26T04:47:50.681Z,0.90
2023-03-26T04:50:17.678Z,1.50
2023-03-26T04:52:45.503Z,2.15
2023-03-26T04:55:48.991Z,1.08
2023-03-26T04:58:19.524Z,2.47
2023-03-26T05:00:49.857Z,1.10
2023-03-26T05:03:16.667Z,1.00
2023-03-26T05:05:46.247Z,1.42
2023-03-26T05:08:15.670Z,1.00
2023-03-26T05:10:44.563Z,1.13
2023-03-26T05:13:11.565Z,2.00
2023-03-26T05:15:38.187Z,1.25
2023-03-26T05:18:04.938Z,1.52
2023-03-26T05:20:34.602Z,3.25
2023-03-26T05:23:04.255Z,1.25
2023-03-26T05:25:31.131Z,2.22
2023-03-26T05:27:57.830Z,2.15
2023-03-26T05:30:24.784Z,1.65
2023-03-26T05:32:58.798Z,2.95
2023-03-26T05:35:25.807Z,3.03
2023-03-26T05:37:57.268Z,4.28
2023-03-26T05:40:23.833Z,3.90
2023-03-26T05:42:52.851Z,3.08
2023-03-26T05:45:19.830Z,6.28
2023-03-26T05:47:47.414Z,2.03
2023-03-26T05:50:14.192Z,1.38
2023-03-26T05:52:41.132Z,3.15
2023-03-26T05:55:11.758Z,4.07
2023-03-26T05:57:39.309Z,2.10
2023-03-26T06:00:11.158Z,3.72
2023-03-26T06:02:42.441Z,3.83
2023-03-26T06:05:09.847Z,2.08
2023-03-26T06:07:36.556Z,1.95
2023-03-26T06:10:03.559Z,3.97
2023-03-26T06:12:30.461Z,1.58
2023-03-26T06:15:01.586Z,3.75
2023-03-26T06:17:28.144Z,2.53
2023-03-26T06:19:54.685Z,5.40
2023-03-26T06:22:23.725Z,2.38
2023-03-26T06:24:52.981Z,2.10
2023-03-26T06:27:21.920Z,2.00
2023-03-26T06:29:48.486Z,2.58
2023-03-26T06:32:20.075Z,2.17
2023-03-26T06:34:46.896Z,4.00
2023-03-26T06:37:13.589Z,3.30
2023-03-26T06:39:42.492Z,3.22
2023-03-26T06:42:11.586Z,1.58
2023-03-26T06:44:40.506Z,3.78
2023-03-26T06:47:07.069Z,3.25
2023-03-26T06:49:36.115Z,4.85
2023-03-26T06:52:05.215Z,2.83
2023-03-26T06:54:31.926Z,2.55
2023-03-26T06:56:59.873Z,1.35
2023-03-26T06:59:26.517Z,1.90
2023-03-26T07:01:55.392Z,2.63
2023-03-26T07:04:22.062Z,1.60
2023-03-26T07:06:48.757Z,4.13
2023-03-26T07:09:17.740Z,2.22
2023-03-26T07:11:49.055Z,3.17
2023-03-26T07:14:15.621Z,3.30
2023-03-26T07:16:45.375Z,3.78
2023-03-26T07:19:11.949Z,4.07
2023-03-26T07:21:38.886Z,2.33
2023-03-26T07:24:05.888Z,1.77
2023-03-26T07:27:01.653Z,2.70
2023-03-26T07:29:57.695Z,4.40
2023-03-26T07:32:40.414Z,3.47
2023-03-26T07:35:41.003Z,4.50
2023-03-26T07:38:12.914Z,3.97
2023-03-26T07:40:53.462Z,3.83
2023-03-26T07:43:25.519Z,2.97
2023-03-26T07:45:57.711Z,4.88
2023-03-26T07:48:29.788Z,3.17
2023-03-26T07:51:00.205Z,2.78
2023-03-26T07:53:30.177Z,3.33
2023-03-26T07:56:06.021Z,3.75
2023-03-26T07:59:19.402Z,4.80
2023-03-26T08:01:58.420Z,2.35
2023-03-26T08:04:56.097Z,3.33
2023-03-26T08:07:45.121Z,2.70
2023-03-26T08:10:27.495Z,4.97
2023-03-26T08:13:31.099Z,3.15
2023-03-26T08:16:54.443Z,3.78
2023-03-26T08:19:44.830Z,3.30
2023-03-26T08:22:20.840Z,3.17
2023-03-26T08:25:01.315Z,2.53
2023-03-26T08:27:43.349Z,2.25
2023-03-26T08:30:18.945Z,4.60
2023-03-26T08:32:54.486Z,3.50
2023-03-26T08:35:21.370Z,2.90
2023-03-26T08:37:51.839Z,3.78
2023-03-26T08:40:34.058Z,2.67
2023-03-26T08:43:09.216Z,3.15
2023-03-26T08:46:17.821Z,3.22
2023-03-26T08:49:00.434Z,2.63
2023-03-26T08:51:32.967Z,1.98
2023-03-26T08:54:28.059Z,2.40
2023-03-26T08:57:03.703Z,2.33
2023-03-26T08:59:32.783Z,3.30
2023-03-26T09:04:52.232Z,3.67
2023-03-26T09:07:38.761Z,3.17
2023-03-26T09:10:27.088Z,2.42
2023-03-26T09:13:22.555Z,3.60
2023-03-26T09:16:01.212Z,1.50
2023-03-26T09:18:29.997Z,4.30
2023-03-26T09:21:28.792Z,1.95
2023-03-26T09:24:19.117Z,2.45
2023-03-26T09:26:55.061Z,2.75
2023-03-26T09:29:27.620Z,2.97
2023-03-26T09:32:14.961Z,2.28
2023-03-26T09:35:13.875Z,3.40
2023-03-26T09:38:11.293Z,2.88
2023-03-26T09:40:44.751Z,2.10
2023-03-26T09:43:54.389Z,2.78
2023-03-26T09:46:55.677Z,3.30
2023-03-26T09:49:55.780Z,1.52
2023-03-26T09:52:45.615Z,1.40
2023-03-26T09:55:44.750Z,1.90
2023-03-26T09:58:20.435Z,2.15
2023-03-26T10:00:52.510Z,1.98
2023-03-26T10:03:26.905Z,4.38
2023-03-26T10:06:21.445Z,2.17
2023-03-26T10:08:56.493Z,1.40
2023-03-26T10:11:29.118Z,2.05
2023-03-26T10:14:01.309Z,2.83
2023-03-26T10:16:37.022Z,2.38
2023-03-26T10:19:15.524Z,3.10
2023-03-26T10:22:14.786Z,1.88
2023-03-26T10:25:10.558Z,1.33
2023-03-26T10:27:48.751Z,6.68
2023-03-26T10:30:35.100Z,4.78
2023-03-26T10:33:10.737Z,5.00
2023-03-26T10:36:14.801Z,4.25
2023-03-26T10:38:44.333Z,4.95
2023-03-26T10:41:20.648Z,2.38
2023-03-26T10:44:05.582Z,3.40
2023-03-26T10:46:53.526Z,5.30
2023-03-26T10:50:01.717Z,5.95
2023-03-26T10:52:38.792Z,4.82
2023-03-26T10:55:24.302Z,3.50
2023-03-26T10:58:12.823Z,3.08
2023-03-26T11:00:58.476Z,3.90
2023-03-26T11:03:36.900Z,3.00
2023-03-26T11:06:28.122Z,1.48
2023-03-26T11:08:54.653Z,2.75
2023-03-26T11:11:27.107Z,2.28
2023-03-26T11:14:03.828Z,2.33
2023-03-26T11:17:07.226Z,4.13
2023-03-26T11:19:37.032Z,2.75
2023-03-26T11:22:12.390Z,4.93
2023-03-26T11:24:58.587Z,3.17
2023-03-26T11:27:40.671Z,3.15
2023-03-26T11:30:25.216Z,2.92
2023-03-26T11:33:14.370Z,2.92
2023-03-26T11:35:45.796Z,3.80
2023-03-26T11:38:20.990Z,3.40
2023-03-26T11:43:24.589Z,2.85
2023-03-26T11:45:53.747Z,2.25
2023-03-26T11:48:30.554Z,2.25
2023-03-26T11:51:05.223Z,2.25
2023-03-26T11:53:34.646Z,2.97
2023-03-26T11:56:21.522Z,2.80
2023-03-26T11:59:14.818Z,4.53
2023-03-26T12:01:51.884Z,1.88
2023-03-26T12:04:35.315Z,2.70
2023-03-26T12:07:17.553Z,3.13
2023-03-26T12:09:53.351Z,2.40
2023-03-26T12:12:25.991Z,3.25
2023-03-26T12:14:55.091Z,2.30
2023-03-26T12:17:31.423Z,2.58
2023-03-26T12:19:59.161Z,2.60
2023-03-26T12:22:43.435Z,3.78
2023-03-26T12:25:17.976Z,3.05
2023-03-26T12:27:49.371Z,2.10
2023-03-26T12:30:23.833Z,1.42
2023-03-26T12:32:57.791Z,2.20
2023-03-26T12:35:30.222Z,2.05
2023-03-26T12:38:27.289Z,1.67
2023-03-26T12:44:42.719Z,5.50
2023-03-26T12:44:48.226Z,3.05
2023-03-26T12:48:00.298Z,2.80
2023-03-26T12:50:15.699Z,2.90
2023-03-26T12:52:53.585Z,3.92
2023-03-26T12:55:26.997Z,1.17
2023-03-26T12:57:53.540Z,1.80
2023-03-26T13:00:41.942Z,4.82
2023-03-26T13:03:31.208Z,2.95
2023-03-26T13:06:03.577Z,1.77
2023-03-26T13:08:46.598Z,3.00
2023-03-26T13:11:17.166Z,0.82
2023-03-26T13:14:02.350Z,1.80
2023-03-26T13:16:50.596Z,1.83
2023-03-26T13:19:48.165Z,1.55
2023-03-26T13:22:17.734Z,1.63
2023-03-26T13:25:00.481Z,2.38
2023-03-26T13:27:48.514Z,3.22
2023-03-26T13:30:26.307Z,1.33
2023-03-26T13:33:14.544Z,2.42
2023-03-26T13:35:58.363Z,1.63
2023-03-26T13:38:38.047Z,1.85
2023-03-26T13:41:18.362Z,2.40
2023-03-26T13:43:59.274Z,2.30
2023-03-26T13:46:42.864Z,4.60
2023-03-26T13:49:15.665Z,1.38
2023-03-26T13:51:42.239Z,1.90
2023-03-26T13:54:32.380Z,1.75
2023-03-26T13:57:31.897Z,1.77
2023-03-26T14:00:06.154Z,2.13
2023-03-26T14:02:40.586Z,1.27
2023-03-26T14:05:15.349Z,1.60
2023-03-26T14:07:49.664Z,4.60
2023-03-26T14:10:34.271Z,2.03
2023-03-26T14:13:05.162Z,0.95
2023-03-26T14:15:40.567Z,1.27
2023-03-26T14:18:40.291Z,1.13
2023-03-26T14:21:46.531Z,0.70
2023-03-26T14:24:50.434Z,0.85
2023-03-26T14:27:18.583Z,0.90
2023-03-26T14:30:01.393Z,2.40
2023-03-26T14:32:30.855Z,1.83
2023-03-26T14:35:52.921Z,1.15
2023-03-26T14:38:33.739Z,1.42
2023-03-26T14:41:14.823Z,1.00
2023-03-26T14:44:02.883Z,1.55
2023-03-26T14:47:10.918Z,2.45
2023-03-26T14:50:04.273Z,1.10
2023-03-26T14:53:01.263Z,1.35
2023-03-26T14:55:40.764Z,1.63
2023-03-26T14:58:22.103Z,1.42
2023-03-26T15:01:04.251Z,2.47
2023-03-26T15:03:40.251Z,1.20
2023-03-26T15:06:22.904Z,0.88
2023-03-26T15:08:58.703Z,2.40
2023-03-26T15:11:42.619Z,1.95
2023-03-26T15:14:30.541Z,1.20
2023-03-26T15:17:20.595Z,1.38
2023-03-26T15:20:05.708Z,1.33
2023-03-26T15:22:54.008Z,1.15
2023-03-26T15:25:57.548Z,3.17
2023-03-26T15:29:03.465Z,1.05
2023-03-26T15:31:42.662Z,5.50
2023-03-26T15:34:31.066Z,1.88
2023-03-26T15:37:06.363Z,2.05
2023-03-26T15:40:13.091Z,1.60
2023-03-26T15:42:51.530Z,1.42
2023-03-26T15:45:31.161Z,1.40
2023-03-26T15:48:27.327Z,1.08
2023-03-26T15:50:54.743Z,2.08
2023-03-26T15:53:49.025Z,0.80
2023-03-26T15:56:22.081Z,1.20
2023-03-26T15:59:05.898Z,2.58
2023-03-26T16:01:47.348Z,1.23
2023-03-26T16:04:38.651Z,1.35
2023-03-26T16:07:29.078Z,1.52
2023-03-26T16:10:23.379Z,1.92
2023-03-26T16:13:14.634Z,1.83
2023-03-26T16:15:51.683Z,3.97
2023-03-26T16:18:29.827Z,1.48
2023-03-26T16:21:04.304Z,1.55
2023-03-26T16:23:34.660Z,1.33
2023-03-26T16:26:22.406Z,1.77
2023-03-26T16:29:11.910Z,3.38
2023-03-26T16:32:07.974Z,3.20
2023-03-26T16:34:40.851Z,1.90
2023-03-26T16:37:43.928Z,3.05
2023-03-26T16:40:25.429Z,1.80
2023-03-26T16:43:33.984Z,2.30
2023-03-26T16:46:25.448Z,2.55
2023-03-26T16:48:54.631Z,2.50
2023-03-26T16:51:39.460Z,2.53
2023-03-26T16:54:22.238Z,2.17
2023-03-26T16:56:53.684Z,4.60
2023-03-26T16:59:26.747Z,2.92
2023-03-26T17:02:36.794Z,4.00
2023-03-26T17:05:21.460Z,5.65
2023-03-26T17:08:06.336Z,2.55
2023-03-26T17:10:36.627Z,4.70
2023-03-26T17:13:25.945Z,4.32
2023-03-26T17:15:58.106Z,2.97
2023-03-26T17:18:50.134Z,3.72
2023-03-26T17:21:47.228Z,3.15
2023-03-26T17:24:49.805Z,4.50
2023-03-26T17:27:44.956Z,6.18
2023-03-26T17:30:39.861Z,3.05
2023-03-26T17:33:06.400Z,3.30
2023-03-26T17:35:45.066Z,4.03
2023-03-26T17:38:19.781Z,8.80
2023-03-26T17:40:47.016Z,9.18
2023-03-26T17:43:40.378Z,7.97
2023-03-26T17:46:24.942Z,7.32
2023-03-26T17:49:04.639Z,3.55
2023-03-26T17:52:05.600Z,14.15
2023-03-26T17:54:47.990Z,3.38
2023-03-26T17:57:22.619Z,4.63
2023-03-26T17:59:57.634Z,4.38
2023-03-26T18:02:37.092Z,4.05
2023-03-26T18:05:10.013Z,4.88
2023-03-26T18:08:04.206Z,5.53
2023-03-26T18:10:38.710Z,5.82
2023-03-26T18:13:42.780Z,9.32
2023-03-26T18:16:50.167Z,5.85
2023-03-26T18:19:19.831Z,3.97
2023-03-26T18:21:51.384Z,5.95
2023-03-26T18:24:39.022Z,4.85
2023-03-26T18:27:12.166Z,5.38
2023-03-26T18:29:45.956Z,4.25
2023-03-26T18:32:12.497Z,5.65
2023-03-26T18:34:50.087Z,4.53
2023-03-26T18:37:23.409Z,4.82
2023-03-26T18:40:20.191Z,7.55
2023-03-26T18:43:01.545Z,8.35
2023-03-26T18:48:04.902Z,5.70
2023-03-26T18:50:41.615Z,7.00
2023-03-26T18:53:22.434Z,4.72
2023-03-26T18:55:53.070Z,7.80
2023-03-26T18:58:38.959Z,6.43
2023-03-26T19:01:23.851Z,5.07
2023-03-26T19:03:53.682Z,8.40
2023-03-26T19:06:20.994Z,6.03
2023-03-26T19:08:53.569Z,6.25
2023-03-26T19:11:20.642Z,7.57
2023-03-26T19:13:59.299Z,5.43
2023-03-26T19:16:35.524Z,7.18
2023-03-26T19:19:09.429Z,5.40
2023-03-26T19:21:36.789Z,5.28
2023-03-26T19:24:05.260Z,6.80
2023-03-26T19:26:34.356Z,5.38
2023-03-26T19:29:03.942Z,8.80
2023-03-26T19:31:36.536Z,6.68
2023-03-26T19:34:13.546Z,7.63
2023-03-26T19:37:01.945Z,6.72
2023-03-26T19:39:40.238Z,7.55
2023-03-26T19:42:12.373Z,5.47
2023-03-26T19:44:42.805Z,5.97
2023-03-26T19:47:31.857Z,5.50
2023-03-26T19:50:28.632Z,6.00
2023-03-26T19:53:16.819Z,7.18
2023-03-26T19:56:06.302Z,6.15
2023-03-26T19:58:36.266Z,7.45
2023-03-26T20:01:03.854Z,7.22
2023-03-26T20:03:39.185Z,5.90
2023-03-26T20:06:11.779Z,9.38
2023-03-26T20:08:43.801Z,6.85
2023-03-26T20:11:16.588Z,8.48
2023-03-26T20:13:43.398Z,6.20
2023-03-26T20:16:25.659Z,7.43
2023-03-26T20:18:57.208Z,5.00
2023-03-26T20:21:27.292Z,6.07
2023-03-26T20:23:54.755Z,7.15
2023-03-26T20:26:23.232Z,7.35
2023-03-26T20:28:53.490Z,6.05
2023-03-26T20:31:28.167Z,8.25
2023-03-26T20:33:54.775Z,5.70
2023-03-26T20:36:33.687Z,7.20
2023-03-26T20:39:10.258Z,6.10
2023-03-26T20:41:48.328Z,5.38
2023-03-26T20:44:19.712Z,5.75
2023-03-26T20:46:48.545Z,5.90
2023-03-26T20:49:22.123Z,6.65
2023-03-26T20:51:48.962Z,5.68
2023-03-26T20:54:25.173Z,5.13
2023-03-26T20:56:55.432Z,6.13
2023-03-26T20:59:28.842Z,5.38
2023-03-26T21:02:00.230Z,5.75
2023-03-26T21:04:27.419Z,5.88
2023-03-26T21:07:07.079Z,6.80
2023-03-26T21:09:44.888Z,4.88
2023-03-26T21:12:23.641Z,5.40
2023-03-26T21:14:52.819Z,5.03
2023-03-26T21:17:25.071Z,4.45
2023-03-26T21:20:00.410Z,7.57
2023-03-26T21:22:49.784Z,5.35
2023-03-26T21:25:24.344Z,7.25
2023-03-26T21:28:28.872Z,5.10
2023-03-26T21:31:09.509Z,6.93
2023-03-26T21:33:38.571Z,5.43
2023-03-26T21:38:34.471Z,5.63
2023-03-26T21:43:30.592Z,6.80
2023-03-26T21:46:00.059Z,3.88
2023-03-26T21:48:29.040Z,4.05
2023-03-26T21:51:02.382Z,5.93
2023-03-26T21:53:31.900Z,4.75
2023-03-26T21:55:58.545Z,3.42
2023-03-26T21:58:40.098Z,4.38
2023-03-26T22:01:17.425Z,5.80
2023-03-26T22:03:56.057Z,3.38
2023-03-26T22:06:31.741Z,4.18
2023-03-26T22:08:59.557Z,3.88
2023-03-26T22:11:26.138Z,7.15
2023-03-26T22:13:57.595Z,4.30
2023-03-26T22:16:29.683Z,6.38
2023-03-26T22:19:01.022Z,7.60
2023-03-26T22:21:27.714Z,6.80
2023-03-26T22:23:59.527Z,7.20
2023-03-26T22:26:28.800Z,5.15
2023-03-26T22:28:57.749Z,4.97
2023-03-26T22:31:27.245Z,5.80
2023-03-26T22:33:57.233Z,5.18
2023-03-26T22:36:25.321Z,6.35
2023-03-26T22:38:56.837Z,5.32
2023-03-26T22:41:25.901Z,6.25
2023-03-26T22:44:06.344Z,5.55
2023-03-26T22:46:40.357Z,3.35
2023-03-26T22:49:07.425Z,5.20
2023-03-26T22:51:36.321Z,3.88
2023-03-26T22:54:03.140Z,4.63
2023-03-26T22:56:32.057Z,5.65
2023-03-26T22:59:01.273Z,4.40
2023-03-26T23:03:59.741Z,3.03
2023-03-26T23:06:29.329Z,4.10
2023-03-26T23:08:58.934Z,3.15
2023-03-26T23:11:25.553Z,3.60
2023-03-26T23:13:52.446Z,2.45
2023-03-26T23:16:21.923Z,3.65
2023-03-26T23:18:48.904Z,3.13
2023-03-26T23:21:20.317Z,3.60
2023-03-26T23:23:51.660Z,3.33
2023-03-26T23:26:24.129Z,3.67
2023-03-26T23:28:54.029Z,3.30
2023-03-26T23:31:25.335Z,4.43
2023-03-26T23:33:51.930Z,2.20
2023-03-26T23:36:20.127Z,2.22
2023-03-26T23:38:48.313Z,5.10
2023-03-26T23:41:17.104Z,2.75
2023-03-26T23:43:53.521Z,2.67
2023-03-26T23:46:30.213Z,2.30
2023-03-26T23:48:59.964Z,2.25
2023-03-26T23:51:30.346Z,2.88
2023-03-26T23:53:59.774Z,3.45
2023-03-26T23:56:29.802Z,6.78
2023-03-26T23:59:01.002Z,3.55
